createdAt,value
2018-11-11T00:00:30.487Z,3.87
2018-11-11T00:02:58.558Z,3.33
2018-11-11T00:05:26.670Z,3.70
2018-11-11T00:07:54.750Z,3.77
2018-11-11T00:10:22.842Z,3.40
2018-11-11T00:12:51.161Z,3.10
2018-11-11T00:15:19.244Z,3.30
2018-11-11T00:17:48.114Z,3.47
2018-11-11T00:20:16.234Z,3.30
2018-11-11T00:22:44.311Z,3.50
2018-11-11T00:25:12.692Z,2.87
2018-11-11T00:27:40.986Z,2.97
2018-11-11T00:30:11.421Z,3.43
2018-11-11T00:32:39.751Z,2.80
2018-11-11T00:35:08.167Z,2.90
2018-11-11T00:37:36.635Z,2.83
2018-11-11T00:40:04.769Z,3.47
2018-11-11T00:42:32.850Z,3.43
2018-11-11T00:45:01.046Z,3.00
2018-11-11T00:47:29.113Z,2.80
2018-11-11T00:49:57.610Z,2.80
2018-11-11T00:52:25.771Z,3.40
2018-11-11T00:54:53.843Z,3.00
2018-11-11T00:57:21.931Z,2.37
2018-11-11T00:59:50.021Z,2.90
2018-11-11T01:02:18.114Z,2.83
2018-11-11T01:04:46.259Z,2.63
2018-11-11T01:07:14.328Z,2.43
2018-11-11T01:09:42.378Z,2.63
2018-11-11T01:12:10.527Z,2.93
2018-11-11T01:14:38.619Z,3.07
2018-11-11T01:17:07.187Z,3.10
2018-11-11T01:19:35.313Z,3.30
2018-11-11T01:22:03.388Z,2.67
2018-11-11T01:24:31.555Z,2.80
2018-11-11T01:26:59.674Z,2.90
2018-11-11T01:29:27.774Z,2.40
2018-11-11T01:31:55.890Z,2.80
2018-11-11T01:34:23.978Z,2.73
2018-11-11T01:36:52.090Z,2.93
2018-11-11T01:39:20.153Z,3.20
2018-11-11T01:41:48.230Z,3.17
2018-11-11T01:44:16.339Z,2.97
2018-11-11T01:46:44.418Z,3.43
2018-11-11T01:49:12.484Z,2.77
2018-11-11T01:51:40.834Z,2.97
2018-11-11T01:54:08.901Z,2.90
2018-11-11T01:56:36.981Z,3.07
2018-11-11T01:59:05.068Z,3.30
2018-11-11T02:01:33.138Z,2.70
2018-11-11T02:04:01.511Z,2.73
2018-11-11T02:06:29.665Z,2.77
2018-11-11T02:08:57.759Z,2.97
2018-11-11T02:11:25.845Z,2.47
2018-11-11T02:13:53.911Z,2.40
2018-11-11T02:16:22.361Z,2.53
2018-11-11T02:18:50.548Z,2.60
2018-11-11T02:21:18.670Z,2.27
2018-11-11T02:23:46.745Z,2.00
2018-11-11T02:26:14.868Z,3.07
2018-11-11T02:28:42.940Z,2.27
2018-11-11T02:31:11.030Z,1.70
2018-11-11T02:33:39.103Z,2.57
2018-11-11T02:36:07.167Z,2.70
2018-11-11T02:38:35.241Z,2.53
2018-11-11T02:41:03.369Z,2.30
2018-11-11T02:43:31.415Z,1.80
2018-11-11T02:45:59.512Z,1.97
2018-11-11T02:48:27.571Z,3.20
2018-11-11T02:50:55.676Z,1.97
2018-11-11T02:53:24.076Z,2.07
2018-11-11T02:55:52.158Z,2.20
2018-11-11T02:58:20.252Z,1.90
2018-11-11T03:00:48.326Z,2.23
2018-11-11T03:03:16.383Z,1.83
2018-11-11T03:05:44.514Z,1.90
2018-11-11T03:08:12.587Z,1.77
2018-11-11T03:10:40.691Z,1.90
2018-11-11T03:13:08.763Z,1.40
2018-11-11T03:15:36.815Z,1.93
2018-11-11T03:18:05.283Z,1.77
2018-11-11T03:20:33.373Z,1.70
2018-11-11T03:23:01.469Z,2.00
2018-11-11T03:25:29.606Z,2.07
2018-11-11T03:27:57.687Z,1.47
2018-11-11T03:30:25.780Z,2.30
2018-11-11T03:32:53.918Z,1.30
2018-11-11T03:35:21.959Z,1.70
2018-11-11T03:37:50.018Z,2.00
2018-11-11T03:40:19.380Z,1.97
2018-11-11T03:42:47.958Z,1.70
2018-11-11T03:45:17.284Z,1.87
2018-11-11T03:47:46.652Z,2.20
2018-11-11T03:50:14.756Z,1.47
2018-11-11T03:52:43.244Z,2.13
2018-11-11T03:55:11.404Z,1.73
2018-11-11T03:57:39.463Z,2.03
2018-11-11T04:00:09.250Z,1.70
2018-11-11T04:02:37.332Z,1.73
2018-11-11T04:05:05.669Z,2.10
2018-11-11T04:07:33.758Z,1.63
2018-11-11T04:10:01.865Z,2.17
2018-11-11T04:12:29.894Z,1.57
2018-11-11T04:14:57.992Z,2.10
2018-11-11T04:17:26.066Z,1.80
2018-11-11T04:19:54.137Z,1.53
2018-11-11T04:22:22.223Z,2.13
2018-11-11T04:24:51.535Z,2.03
2018-11-11T04:27:20.031Z,1.73
2018-11-11T04:29:48.318Z,2.13
2018-11-11T04:32:16.449Z,2.37
2018-11-11T04:34:44.522Z,2.00
2018-11-11T04:37:12.583Z,1.77
2018-11-11T04:39:41.299Z,1.60
2018-11-11T04:42:09.669Z,2.40
2018-11-11T04:44:37.735Z,1.97
2018-11-11T04:47:05.963Z,1.87
2018-11-11T04:49:34.026Z,1.83
2018-11-11T04:52:02.098Z,1.93
2018-11-11T04:54:30.179Z,2.00
2018-11-11T04:56:58.247Z,2.20
2018-11-11T04:59:26.342Z,1.67
2018-11-11T05:01:54.426Z,1.80
2018-11-11T05:04:22.577Z,1.70
2018-11-11T05:06:50.584Z,1.97
2018-11-11T05:09:18.665Z,2.37
2018-11-11T05:11:46.743Z,1.67
2018-11-11T05:14:14.835Z,2.20
2018-11-11T05:16:42.909Z,1.70
2018-11-11T05:19:11.390Z,1.90
2018-11-11T05:21:39.523Z,2.20
2018-11-11T05:24:07.607Z,2.20
2018-11-11T05:26:35.991Z,1.80
2018-11-11T05:29:04.474Z,1.73
2018-11-11T05:31:32.547Z,2.90
2018-11-11T05:34:00.630Z,2.40
2018-11-11T05:36:28.690Z,2.10
2018-11-11T05:38:56.767Z,1.57
2018-11-11T05:41:24.850Z,1.83
2018-11-11T05:43:53.191Z,2.07
2018-11-11T05:46:21.269Z,2.10
2018-11-11T05:48:49.335Z,1.97
2018-11-11T05:51:17.404Z,2.30
2018-11-11T05:53:45.460Z,1.80
2018-11-11T05:56:13.526Z,1.70
2018-11-11T05:58:41.599Z,1.57
2018-11-11T06:01:09.674Z,2.30
2018-11-11T06:03:37.778Z,2.03
2018-11-11T06:06:06.458Z,2.87
2018-11-11T06:08:34.551Z,1.60
2018-11-11T06:11:02.610Z,1.70
2018-11-11T06:13:30.674Z,2.17
2018-11-11T06:15:58.746Z,2.37
2018-11-11T06:18:26.808Z,2.10
2018-11-11T06:20:54.894Z,2.37
2018-11-11T06:23:22.979Z,1.83
2018-11-11T06:25:51.043Z,2.27
2018-11-11T06:28:19.110Z,1.90
2018-11-11T06:30:47.182Z,2.00
2018-11-11T06:33:15.263Z,1.40
2018-11-11T06:35:43.326Z,1.50
2018-11-11T06:38:11.475Z,2.07
2018-11-11T06:40:39.526Z,1.80
2018-11-11T06:43:07.611Z,1.57
2018-11-11T06:45:35.702Z,1.87
2018-11-11T06:48:03.914Z,1.63
2018-11-11T06:50:31.935Z,1.80
2018-11-11T06:53:00.112Z,1.50
2018-11-11T06:55:28.296Z,1.43
2018-11-11T06:57:56.457Z,2.20
2018-11-11T07:00:24.517Z,1.80
2018-11-11T07:03:04.390Z,1.53
2018-11-11T07:05:32.449Z,1.97
2018-11-11T07:08:00.542Z,1.13
2018-11-11T07:10:28.622Z,1.30
2018-11-11T07:12:56.683Z,1.50
2018-11-11T07:15:24.838Z,1.37
2018-11-11T07:17:52.911Z,0.97
2018-11-11T07:20:20.996Z,1.20
2018-11-11T07:22:49.068Z,1.07
2018-11-11T07:25:17.263Z,1.43
2018-11-11T07:27:45.330Z,1.20
2018-11-11T07:30:13.418Z,1.60
2018-11-11T07:32:41.486Z,1.30
2018-11-11T07:35:10.302Z,1.27
2018-11-11T07:37:38.390Z,1.30
2018-11-11T07:40:08.411Z,1.23
2018-11-11T07:42:36.639Z,1.20
2018-11-11T07:45:04.948Z,1.20
2018-11-11T07:47:33.066Z,1.40
2018-11-11T07:50:01.144Z,1.07
2018-11-11T07:52:29.223Z,1.30
2018-11-11T07:54:57.324Z,1.50
2018-11-11T07:57:25.403Z,1.30
2018-11-11T07:59:53.483Z,1.30
2018-11-11T08:02:21.670Z,1.30
2018-11-11T08:04:49.699Z,1.30
2018-11-11T08:07:18.100Z,1.50
2018-11-11T08:09:46.162Z,1.30
2018-11-11T08:12:14.222Z,1.40
2018-11-11T08:14:42.339Z,1.30
2018-11-11T08:17:10.442Z,1.77
2018-11-11T08:19:38.566Z,1.60
2018-11-11T08:22:06.656Z,1.60
2018-11-11T08:24:34.761Z,1.37
2018-11-11T08:27:02.832Z,1.70
2018-11-11T08:29:30.891Z,0.90
2018-11-11T08:31:59.046Z,1.30
2018-11-11T08:34:27.065Z,1.50
2018-11-11T08:36:55.126Z,1.20
2018-11-11T08:39:23.200Z,1.50
2018-11-11T08:41:51.266Z,1.43
2018-11-11T08:44:19.598Z,1.63
2018-11-11T08:46:47.666Z,1.40
2018-11-11T08:49:15.739Z,1.10
2018-11-11T08:51:43.830Z,1.20
2018-11-11T08:54:11.903Z,1.47
2018-11-11T08:56:39.995Z,1.40
2018-11-11T08:59:08.101Z,1.20
2018-11-11T09:01:36.176Z,1.40
2018-11-11T09:04:04.543Z,1.87
2018-11-11T09:06:32.634Z,1.63
2018-11-11T09:09:01.030Z,1.30
2018-11-11T09:11:29.179Z,1.67
2018-11-11T09:13:57.179Z,1.23
2018-11-11T09:16:25.270Z,1.17
2018-11-11T09:18:53.357Z,1.50
2018-11-11T09:21:21.477Z,1.30
2018-11-11T09:23:49.663Z,1.30
2018-11-11T09:26:17.635Z,1.30
2018-11-11T09:28:45.710Z,1.50
2018-11-11T09:31:13.775Z,1.50
2018-11-11T09:33:41.897Z,1.40
2018-11-11T09:36:10.554Z,1.20
2018-11-11T09:38:38.730Z,1.87
2018-11-11T09:41:07.643Z,1.30
2018-11-11T09:43:35.896Z,1.40
2018-11-11T09:46:04.088Z,1.60
2018-11-11T09:48:32.187Z,1.20
2018-11-11T09:51:00.311Z,1.63
2018-11-11T09:53:29.165Z,1.57
2018-11-11T09:55:57.263Z,1.80
2018-11-11T09:58:25.380Z,0.93
2018-11-11T10:00:53.395Z,1.40
2018-11-11T10:03:40.246Z,1.73
2018-11-11T10:06:47.125Z,1.03
2018-11-11T10:09:19.712Z,2.37
2018-11-11T10:11:53.211Z,1.40
2018-11-11T10:14:31.030Z,1.43
2018-11-11T10:17:06.340Z,1.53
2018-11-11T10:19:38.118Z,1.33
2018-11-11T10:22:12.522Z,1.60
2018-11-11T10:25:01.090Z,1.77
2018-11-11T10:27:34.691Z,1.43
2018-11-11T10:30:09.279Z,1.40
2018-11-11T10:32:54.951Z,1.60
2018-11-11T10:35:26.694Z,1.33
2018-11-11T10:38:58.911Z,1.27
2018-11-11T10:41:33.704Z,1.70
2018-11-11T10:44:03.640Z,1.37
2018-11-11T10:46:44.277Z,1.57
2018-11-11T10:49:15.339Z,1.60
2018-11-11T10:51:44.148Z,1.50
2018-11-11T10:54:12.293Z,1.43
2018-11-11T10:56:40.275Z,1.87
2018-11-11T10:59:08.419Z,1.87
2018-11-11T11:02:39.650Z,1.70
2018-11-11T11:05:10.209Z,1.60
2018-11-11T11:07:38.346Z,1.20
2018-11-11T11:10:06.734Z,1.43
2018-11-11T11:12:34.856Z,1.33
2018-11-11T11:15:02.902Z,1.70
2018-11-11T11:17:30.968Z,1.77
2018-11-11T11:19:59.039Z,1.30
2018-11-11T11:22:27.122Z,1.03
2018-11-11T11:24:55.323Z,1.67
2018-11-11T11:27:23.437Z,1.33
2018-11-11T11:29:51.491Z,1.50
2018-11-11T11:32:19.558Z,1.27
2018-11-11T11:34:47.630Z,1.53
2018-11-11T11:37:15.731Z,1.70
2018-11-11T11:39:43.849Z,1.70
2018-11-11T11:42:11.919Z,2.00
2018-11-11T11:44:40.005Z,1.73
2018-11-11T11:47:08.118Z,1.60
2018-11-11T11:49:36.212Z,2.27
2018-11-11T11:52:04.724Z,2.20
2018-11-11T11:54:32.735Z,2.30
2018-11-11T11:57:00.863Z,2.33
2018-11-11T11:59:28.967Z,1.73
2018-11-11T12:01:57.171Z,1.87
2018-11-11T12:04:25.210Z,1.97
2018-11-11T12:06:53.330Z,1.60
2018-11-11T12:09:21.687Z,1.73
2018-11-11T12:11:49.852Z,1.30
2018-11-11T12:14:17.927Z,2.40
2018-11-11T12:16:46.028Z,1.20
2018-11-11T12:19:14.216Z,1.47
2018-11-11T12:21:42.315Z,2.20
2018-11-11T12:24:10.371Z,1.50
2018-11-11T12:26:38.451Z,2.07
2018-11-11T12:29:06.514Z,1.83
2018-11-11T12:31:34.606Z,1.83
2018-11-11T12:34:03.132Z,1.93
2018-11-11T12:36:31.242Z,2.07
2018-11-11T12:38:59.392Z,1.80
2018-11-11T12:41:27.427Z,1.70
2018-11-11T12:43:55.503Z,2.07
2018-11-11T12:46:23.596Z,2.10
2018-11-11T12:48:51.748Z,2.60
2018-11-11T12:51:19.771Z,2.37
2018-11-11T12:53:47.861Z,1.60
2018-11-11T12:56:17.130Z,1.93
2018-11-11T12:58:45.237Z,2.20
2018-11-11T13:01:13.376Z,1.87
2018-11-11T13:03:41.483Z,1.87
2018-11-11T13:06:09.563Z,2.20
2018-11-11T13:08:37.659Z,2.23
2018-11-11T13:11:05.796Z,1.70
2018-11-11T13:13:33.875Z,1.27
2018-11-11T13:16:02.010Z,1.70
2018-11-11T13:18:30.323Z,1.50
2018-11-11T13:20:58.403Z,1.90
2018-11-11T13:23:26.475Z,2.70
2018-11-11T13:25:54.551Z,2.13
2018-11-11T13:28:22.657Z,2.00
2018-11-11T13:30:50.736Z,2.77
2018-11-11T13:33:18.814Z,2.07
2018-11-11T13:35:46.884Z,1.87
2018-11-11T13:38:15.010Z,2.70
2018-11-11T13:40:43.067Z,1.73
2018-11-11T13:43:11.198Z,1.90
2018-11-11T13:45:39.290Z,2.13
2018-11-11T13:48:07.470Z,2.60
2018-11-11T13:50:35.543Z,1.83
2018-11-11T13:53:03.720Z,1.73
2018-11-11T13:55:31.771Z,2.10
2018-11-11T13:57:59.914Z,2.10
2018-11-11T14:00:28.543Z,2.43
2018-11-11T14:02:56.909Z,2.13
2018-11-11T14:05:25.079Z,1.80
2018-11-11T14:07:53.207Z,1.60
2018-11-11T14:10:21.262Z,2.23
2018-11-11T14:12:49.334Z,1.97
2018-11-11T14:15:19.111Z,2.00
2018-11-11T14:17:47.926Z,2.10
2018-11-11T14:20:17.181Z,1.90
2018-11-11T14:22:46.277Z,2.27
2018-11-11T14:25:16.781Z,1.43
2018-11-11T14:27:45.160Z,2.03
2018-11-11T14:30:17.165Z,2.87
2018-11-11T14:32:46.100Z,1.80
2018-11-11T14:35:14.247Z,2.43
2018-11-11T14:37:42.808Z,1.70
2018-11-11T14:40:15.063Z,2.03
2018-11-11T14:42:43.424Z,1.60
2018-11-11T14:45:12.978Z,2.50
2018-11-11T14:47:41.739Z,1.53
2018-11-11T14:50:11.279Z,1.60
2018-11-11T14:52:39.451Z,1.77
2018-11-11T14:55:13.491Z,1.30
2018-11-11T14:57:41.579Z,1.27
2018-11-11T15:00:16.013Z,1.87
2018-11-11T15:02:48.022Z,2.00
2018-11-11T15:05:17.009Z,1.40
2018-11-11T15:07:47.665Z,1.63
2018-11-11T15:10:15.884Z,1.30
2018-11-11T15:12:44.003Z,2.00
2018-11-11T15:15:15.097Z,1.37
2018-11-11T15:17:43.991Z,1.60
2018-11-11T15:20:13.361Z,1.53
2018-11-11T15:22:41.408Z,1.30
2018-11-11T15:25:12.574Z,1.27
2018-11-11T15:27:41.495Z,1.63
2018-11-11T15:30:15.042Z,1.47
2018-11-11T15:32:45.055Z,1.63
2018-11-11T15:35:15.606Z,1.30
2018-11-11T15:37:46.452Z,1.23
2018-11-11T15:40:18.079Z,1.57
2018-11-11T15:42:48.093Z,1.53
2018-11-11T15:45:19.673Z,1.60
2018-11-11T15:47:49.891Z,1.40
2018-11-11T15:50:20.930Z,1.37
2018-11-11T15:52:51.660Z,1.67
2018-11-11T15:55:20.821Z,1.10
2018-11-11T15:57:51.015Z,1.33
2018-11-11T16:00:20.803Z,1.40
2018-11-11T16:02:49.260Z,1.50
2018-11-11T16:05:19.463Z,1.67
2018-11-11T16:07:48.772Z,1.43
2018-11-11T16:10:21.978Z,1.23
2018-11-11T16:12:51.126Z,1.33
2018-11-11T16:15:23.197Z,1.33
2018-11-11T16:17:55.396Z,1.70
2018-11-11T16:20:25.636Z,2.10
2018-11-11T16:22:55.927Z,1.43
2018-11-11T16:25:25.892Z,1.33
2018-11-11T16:27:59.041Z,1.40
2018-11-11T16:30:28.727Z,1.60
2018-11-11T16:32:57.439Z,1.27
2018-11-11T16:35:26.407Z,1.30
2018-11-11T16:37:54.602Z,1.40
2018-11-11T16:40:24.244Z,1.20
2018-11-11T16:42:52.598Z,1.47
2018-11-11T16:45:22.718Z,1.30
2018-11-11T16:47:50.872Z,1.53
2018-11-11T16:50:22.211Z,1.53
2018-11-11T16:52:51.049Z,2.30
2018-11-11T16:55:21.274Z,1.50
2018-11-11T16:57:49.483Z,1.73
2018-11-11T17:00:19.016Z,1.87
2018-11-11T17:02:47.689Z,2.33
2018-11-11T17:05:19.150Z,1.43
2018-11-11T17:07:48.440Z,1.50
2018-11-11T17:10:18.883Z,1.40
2018-11-11T17:12:47.971Z,1.47
2018-11-11T17:15:17.383Z,1.50
2018-11-11T17:17:45.454Z,1.50
2018-11-11T17:20:14.800Z,1.67
2018-11-11T17:22:43.356Z,2.60
2018-11-11T17:25:12.550Z,2.10
2018-11-11T17:27:40.695Z,1.90
2018-11-11T17:30:12.439Z,2.03
2018-11-11T17:32:40.758Z,1.70
2018-11-11T17:35:08.906Z,1.70
2018-11-11T17:37:37.038Z,1.90
2018-11-11T17:40:07.877Z,1.50
2018-11-11T17:42:35.926Z,2.37
2018-11-11T17:45:04.429Z,2.20
2018-11-11T17:47:32.527Z,1.33
2018-11-11T17:50:00.691Z,1.90
2018-11-11T17:52:28.792Z,2.33
2018-11-11T17:54:56.871Z,2.53
2018-11-11T17:57:24.988Z,1.97
2018-11-11T17:59:53.483Z,1.50
2018-11-11T18:02:21.639Z,1.30
2018-11-11T18:04:49.687Z,1.90
2018-11-11T18:07:17.861Z,2.00
2018-11-11T18:09:45.956Z,1.57
2018-11-11T18:12:14.362Z,1.80
2018-11-11T18:14:42.441Z,1.43
2018-11-11T18:17:10.613Z,1.93
2018-11-11T18:19:38.649Z,1.50
2018-11-11T18:22:06.743Z,1.70
2018-11-11T18:24:34.920Z,2.03
2018-11-11T18:27:03.114Z,1.93
2018-11-11T18:29:31.092Z,2.27
2018-11-11T18:31:59.245Z,1.80
2018-11-11T18:34:27.431Z,1.83
2018-11-11T18:36:55.403Z,1.70
2018-11-11T18:39:23.483Z,2.33
2018-11-11T18:41:51.646Z,2.53
2018-11-11T18:44:19.678Z,3.13
2018-11-11T18:46:47.845Z,2.47
2018-11-11T18:49:15.944Z,1.90
2018-11-11T18:51:44.027Z,1.63
2018-11-11T18:54:12.119Z,2.10
2018-11-11T18:56:40.209Z,2.07
2018-11-11T18:59:08.470Z,1.83
2018-11-11T19:01:36.514Z,1.70
2018-11-11T19:04:05.052Z,1.87
2018-11-11T19:06:33.184Z,2.67
2018-11-11T19:09:01.271Z,3.13
2018-11-11T19:11:29.367Z,2.73
2018-11-11T19:13:57.495Z,2.50
2018-11-11T19:16:25.566Z,2.93
2018-11-11T19:18:53.799Z,4.10
2018-11-11T19:21:21.806Z,3.30
2018-11-11T19:23:49.964Z,4.17
2018-11-11T19:26:18.054Z,3.67
2018-11-11T19:28:46.125Z,3.53
2018-11-11T19:31:14.511Z,3.00
2018-11-11T19:33:42.655Z,3.17
2018-11-11T19:36:10.740Z,2.17
2018-11-11T19:38:38.807Z,2.27
2018-11-11T19:41:07.083Z,2.00
2018-11-11T19:43:35.474Z,2.53
2018-11-11T19:46:03.608Z,2.20
2018-11-11T19:48:31.711Z,1.80
2018-11-11T19:50:59.775Z,2.47
2018-11-11T19:53:27.875Z,2.80
2018-11-11T19:55:55.951Z,2.77
2018-11-11T19:58:24.032Z,2.13
2018-11-11T20:00:52.124Z,2.10
2018-11-11T20:03:20.260Z,3.07
2018-11-11T20:05:48.347Z,3.10
2018-11-11T20:08:16.650Z,3.70
2018-11-11T20:10:44.756Z,4.20
2018-11-11T20:13:12.837Z,5.03
2018-11-11T20:15:40.935Z,3.90
2018-11-11T20:18:09.202Z,3.10
2018-11-11T20:20:38.751Z,3.53
2018-11-11T20:23:06.892Z,2.73
2018-11-11T20:25:35.203Z,2.73
2018-11-11T20:28:03.332Z,3.13
2018-11-11T20:30:32.746Z,3.10
2018-11-11T20:33:00.855Z,2.43
2018-11-11T20:35:30.183Z,3.00
2018-11-11T20:37:58.208Z,3.03
2018-11-11T20:40:27.106Z,2.60
2018-11-11T20:42:55.662Z,2.57
2018-11-11T20:45:25.709Z,2.73
2018-11-11T20:47:53.771Z,2.83
2018-11-11T20:50:23.155Z,3.73
2018-11-11T20:52:54.819Z,2.93
2018-11-11T20:55:22.979Z,3.07
2018-11-11T20:57:51.382Z,2.87
2018-11-11T21:00:20.837Z,3.40
2018-11-11T21:02:48.934Z,3.30
2018-11-11T21:05:19.267Z,2.87
2018-11-11T21:07:47.372Z,2.57
2018-11-11T21:10:16.858Z,2.83
2018-11-11T21:12:45.035Z,3.60
2018-11-11T21:15:14.323Z,3.00
2018-11-11T21:17:42.500Z,2.50
2018-11-11T21:20:11.890Z,2.70
2018-11-11T21:22:40.383Z,3.27
2018-11-11T21:25:08.860Z,3.70
2018-11-11T21:27:37.757Z,3.37
2018-11-11T21:30:07.804Z,3.17
2018-11-11T21:32:35.942Z,2.93
2018-11-11T21:35:04.143Z,2.90
2018-11-11T21:37:32.211Z,3.33
2018-11-11T21:40:00.299Z,2.47
2018-11-11T21:42:28.370Z,3.10
2018-11-11T21:44:56.511Z,3.17
2018-11-11T21:47:24.576Z,3.20
2018-11-11T21:49:52.651Z,3.70
2018-11-11T21:52:20.823Z,3.70
2018-11-11T21:54:48.887Z,2.97
2018-11-11T21:57:16.954Z,3.10
2018-11-11T21:59:45.047Z,3.70
2018-11-11T22:02:13.204Z,3.10
2018-11-11T22:04:41.209Z,3.60
2018-11-11T22:07:09.415Z,3.27
2018-11-11T22:09:37.505Z,3.53
2018-11-11T22:12:05.619Z,3.30
2018-11-11T22:14:33.713Z,4.43
2018-11-11T22:17:01.938Z,3.57
2018-11-11T22:19:29.934Z,4.03
2018-11-11T22:21:58.087Z,3.53
2018-11-11T22:24:26.163Z,3.00
2018-11-11T22:26:55.436Z,3.70
2018-11-11T22:29:23.845Z,3.60
2018-11-11T22:31:51.923Z,3.47
2018-11-11T22:34:20.087Z,3.50
2018-11-11T22:36:48.214Z,3.93
2018-11-11T22:39:16.279Z,3.57
2018-11-11T22:41:44.378Z,3.30
2018-11-11T22:44:12.430Z,4.10
2018-11-11T22:46:40.530Z,3.40
2018-11-11T22:49:08.927Z,3.67
2018-11-11T22:51:37.065Z,3.60
2018-11-11T22:54:05.663Z,3.73
2018-11-11T22:56:33.755Z,3.60
2018-11-11T22:59:01.875Z,3.83
2018-11-11T23:01:29.967Z,4.80
2018-11-11T23:03:58.056Z,6.23
2018-11-11T23:06:26.443Z,4.87
2018-11-11T23:08:54.519Z,3.97
2018-11-11T23:11:22.715Z,4.10
2018-11-11T23:13:50.802Z,4.47
2018-11-11T23:16:18.967Z,3.53
2018-11-11T23:18:47.159Z,3.97
2018-11-11T23:21:15.278Z,4.20
2018-11-11T23:23:43.376Z,3.90
2018-11-11T23:26:11.451Z,4.57
2018-11-11T23:28:39.601Z,4.47
2018-11-11T23:31:07.915Z,5.00
2018-11-11T23:33:35.979Z,4.70
2018-11-11T23:36:04.146Z,4.83
2018-11-11T23:38:32.212Z,4.80
2018-11-11T23:41:00.333Z,4.93
2018-11-11T23:43:28.398Z,4.77
2018-11-11T23:45:56.743Z,6.23
2018-11-11T23:48:24.818Z,6.03
2018-11-11T23:50:52.894Z,5.80
2018-11-11T23:53:20.979Z,6.70
2018-11-11T23:55:49.042Z,5.90
2018-11-11T23:58:17.118Z,5.20
